sensor_id;sensor_type;location;lat;lon;timestamp;P1;durP1;ratioP1;P2;durP2;ratioP2
22441;SDS011;11388;54.456;9.752;2023-05-14T00:01:28;7.70;;;4.10;;
22441;SDS011;11388;54.456;9.752;2023-05-14T00:04:21;5.47;;;4.40;;
22441;SDS011;11388;54.456;9.752;2023-05-14T00:07:06;6.68;;;4.80;;
22441;SDS011;11388;54.456;9.752;2023-05-14T00:10:16;6.63;;;4.32;;
22441;SDS011;11388;54.456;9.752;2023-05-14T00:12:57;6.30;;;4.55;;
22441;SDS011;11388;54.456;9.752;2023-05-14T00:20:53;6.78;;;4.07;;
22441;SDS011;11388;54.456;9.752;2023-05-14T00:23:25;5.80;;;4.47;;
22441;SDS011;11388;54.456;9.752;2023-05-14T00:26:16;6.32;;;4.50;;
22441;SDS011;11388;54.456;9.752;2023-05-14T00:28:54;7.45;;;4.72;;
22441;SDS011;11388;54.456;9.752;2023-05-14T00:31:26;5.75;;;4.60;;
22441;SDS011;11388;54.456;9.752;2023-05-14T00:34:17;5.78;;;4.57;;
22441;SDS011;11388;54.456;9.752;2023-05-14T00:40:00;7.70;;;4.60;;
22441;SDS011;11388;54.456;9.752;2023-05-14T00:42:38;5.03;;;4.53;;
22441;SDS011;11388;54.456;9.752;2023-05-14T00:49:00;5.70;;;4.40;;
22441;SDS011;11388;54.456;9.752;2023-05-14T00:51:33;5.10;;;4.55;;
22441;SDS011;11388;54.456;9.752;2023-05-14T00:54:05;6.20;;;4.40;;
22441;SDS011;11388;54.456;9.752;2023-05-14T00:56:54;6.75;;;4.50;;
22441;SDS011;11388;54.456;9.752;2023-05-14T00:59:24;6.45;;;4.90;;
22441;SDS011;11388;54.456;9.752;2023-05-14T01:09:16;7.90;;;5.00;;
22441;SDS011;11388;54.456;9.752;2023-05-14T01:12:05;7.75;;;5.40;;
22441;SDS011;11388;54.456;9.752;2023-05-14T01:18:09;7.57;;;5.05;;
22441;SDS011;11388;54.456;9.752;2023-05-14T01:24:12;6.75;;;5.63;;
22441;SDS011;11388;54.456;9.752;2023-05-14T01:33:48;6.43;;;5.25;;
22441;SDS011;11388;54.456;9.752;2023-05-14T01:36:21;7.72;;;5.88;;
22441;SDS011;11388;54.456;9.752;2023-05-14T01:38:50;8.88;;;6.88;;
22441;SDS011;11388;54.456;9.752;2023-05-14T01:44:52;8.32;;;5.90;;
22441;SDS011;11388;54.456;9.752;2023-05-14T01:47:21;7.45;;;5.90;;
22441;SDS011;11388;54.456;9.752;2023-05-14T01:49:55;6.25;;;5.43;;
22441;SDS011;11388;54.456;9.752;2023-05-14T01:52:23;6.97;;;5.47;;
22441;SDS011;11388;54.456;9.752;2023-05-14T02:01:42;7.57;;;6.25;;
22441;SDS011;11388;54.456;9.752;2023-05-14T02:04:47;7.15;;;6.10;;
22441;SDS011;11388;54.456;9.752;2023-05-14T02:07:21;6.93;;;6.03;;
22441;SDS011;11388;54.456;9.752;2023-05-14T02:09:59;7.20;;;5.68;;
22441;SDS011;11388;54.456;9.752;2023-05-14T02:13:19;10.45;;;6.38;;
22441;SDS011;11388;54.456;9.752;2023-05-14T02:15:48;7.20;;;6.50;;
22441;SDS011;11388;54.456;9.752;2023-05-14T02:18:25;9.02;;;6.65;;
22441;SDS011;11388;54.456;9.752;2023-05-14T02:21:25;8.77;;;6.90;;
22441;SDS011;11388;54.456;9.752;2023-05-14T02:23:51;7.03;;;6.32;;
22441;SDS011;11388;54.456;9.752;2023-05-14T02:26:16;7.40;;;6.40;;
22441;SDS011;11388;54.456;9.752;2023-05-14T02:28:48;9.32;;;7.22;;
22441;SDS011;11388;54.456;9.752;2023-05-14T02:31:14;10.80;;;7.05;;
22441;SDS011;11388;54.456;9.752;2023-05-14T02:33:41;7.70;;;6.75;;
22441;SDS011;11388;54.456;9.752;2023-05-14T02:36:12;11.43;;;8.32;;
22441;SDS011;11388;54.456;9.752;2023-05-14T02:42:24;9.68;;;7.55;;
22441;SDS011;11388;54.456;9.752;2023-05-14T02:44:50;8.55;;;7.65;;
22441;SDS011;11388;54.456;9.752;2023-05-14T02:47:16;8.82;;;7.43;;
22441;SDS011;11388;54.456;9.752;2023-05-14T02:49:42;8.13;;;7.00;;
22441;SDS011;11388;54.456;9.752;2023-05-14T02:52:08;9.88;;;7.30;;
22441;SDS011;11388;54.456;9.752;2023-05-14T02:54:34;8.25;;;7.40;;
22441;SDS011;11388;54.456;9.752;2023-05-14T02:57:02;10.07;;;7.40;;
22441;SDS011;11388;54.456;9.752;2023-05-14T02:59:28;8.15;;;7.28;;
22441;SDS011;11388;54.456;9.752;2023-05-14T03:01:55;8.55;;;7.63;;
22441;SDS011;11388;54.456;9.752;2023-05-14T03:04:23;8.80;;;7.90;;
22441;SDS011;11388;54.456;9.752;2023-05-14T03:06:49;8.35;;;7.43;;
22441;SDS011;11388;54.456;9.752;2023-05-14T03:09:15;8.32;;;7.05;;
22441;SDS011;11388;54.456;9.752;2023-05-14T03:11:41;7.63;;;6.93;;
22441;SDS011;11388;54.456;9.752;2023-05-14T03:14:07;7.88;;;7.07;;
22441;SDS011;11388;54.456;9.752;2023-05-14T03:16:32;8.25;;;6.80;;
22441;SDS011;11388;54.456;9.752;2023-05-14T03:18:58;9.35;;;7.28;;
22441;SDS011;11388;54.456;9.752;2023-05-14T03:21:24;9.18;;;7.20;;
22441;SDS011;11388;54.456;9.752;2023-05-14T03:23:51;9.57;;;7.72;;
22441;SDS011;11388;54.456;9.752;2023-05-14T03:26:17;7.90;;;7.10;;
22441;SDS011;11388;54.456;9.752;2023-05-14T03:28:53;8.82;;;8.02;;
22441;SDS011;11388;54.456;9.752;2023-05-14T03:31:29;8.60;;;7.55;;
22441;SDS011;11388;54.456;9.752;2023-05-14T03:34:04;8.70;;;7.80;;
22441;SDS011;11388;54.456;9.752;2023-05-14T03:36:34;11.85;;;8.95;;
22441;SDS011;11388;54.456;9.752;2023-05-14T03:39:03;10.43;;;9.00;;
22441;SDS011;11388;54.456;9.752;2023-05-14T03:41:33;10.68;;;8.98;;
22441;SDS011;11388;54.456;9.752;2023-05-14T03:44:02;10.18;;;9.07;;
22441;SDS011;11388;54.456;9.752;2023-05-14T03:49:41;13.05;;;9.65;;
22441;SDS011;11388;54.456;9.752;2023-05-14T03:52:10;11.13;;;9.93;;
22441;SDS011;11388;54.456;9.752;2023-05-14T03:54:36;13.73;;;10.65;;
22441;SDS011;11388;54.456;9.752;2023-05-14T03:57:02;11.65;;;10.55;;
22441;SDS011;11388;54.456;9.752;2023-05-14T03:59:28;12.25;;;11.05;;
22441;SDS011;11388;54.456;9.752;2023-05-14T04:01:54;11.65;;;10.52;;
22441;SDS011;11388;54.456;9.752;2023-05-14T04:04:20;11.15;;;10.05;;
22441;SDS011;11388;54.456;9.752;2023-05-14T04:06:45;10.95;;;9.85;;
22441;SDS011;11388;54.456;9.752;2023-05-14T04:09:11;11.07;;;9.98;;
22441;SDS011;11388;54.456;9.752;2023-05-14T04:11:37;12.10;;;10.13;;
22441;SDS011;11388;54.456;9.752;2023-05-14T04:14:03;11.77;;;10.05;;
22441;SDS011;11388;54.456;9.752;2023-05-14T04:16:28;10.35;;;9.35;;
22441;SDS011;11388;54.456;9.752;2023-05-14T04:18:54;10.52;;;9.43;;
22441;SDS011;11388;54.456;9.752;2023-05-14T04:21:20;10.27;;;9.32;;
22441;SDS011;11388;54.456;9.752;2023-05-14T04:23:45;10.68;;;9.68;;
22441;SDS011;11388;54.456;9.752;2023-05-14T04:26:11;11.05;;;9.93;;
22441;SDS011;11388;54.456;9.752;2023-05-14T04:28:37;12.27;;;10.85;;
22441;SDS011;11388;54.456;9.752;2023-05-14T04:31:02;11.25;;;10.25;;
22441;SDS011;11388;54.456;9.752;2023-05-14T04:33:28;11.75;;;10.55;;
22441;SDS011;11388;54.456;9.752;2023-05-14T04:35:57;11.23;;;10.23;;
22441;SDS011;11388;54.456;9.752;2023-05-14T04:38:22;12.18;;;10.98;;
22441;SDS011;11388;54.456;9.752;2023-05-14T04:40:48;13.00;;;10.93;;
22441;SDS011;11388;54.456;9.752;2023-05-14T04:43:14;13.23;;;11.15;;
22441;SDS011;11388;54.456;9.752;2023-05-14T04:45:40;12.85;;;11.52;;
22441;SDS011;11388;54.456;9.752;2023-05-14T04:48:07;14.90;;;12.48;;
22441;SDS011;11388;54.456;9.752;2023-05-14T04:50:33;13.15;;;11.80;;
22441;SDS011;11388;54.456;9.752;2023-05-14T04:52:59;12.57;;;11.27;;
22441;SDS011;11388;54.456;9.752;2023-05-14T04:55:25;12.02;;;10.82;;
22441;SDS011;11388;54.456;9.752;2023-05-14T04:57:51;11.88;;;10.77;;
22441;SDS011;11388;54.456;9.752;2023-05-14T05:00:17;11.75;;;10.63;;
22441;SDS011;11388;54.456;9.752;2023-05-14T05:02:43;11.70;;;10.60;;
22441;SDS011;11388;54.456;9.752;2023-05-14T05:05:11;13.00;;;11.70;;
22441;SDS011;11388;54.456;9.752;2023-05-14T05:07:37;13.07;;;11.77;;
22441;SDS011;11388;54.456;9.752;2023-05-14T05:10:03;13.05;;;10.80;;
22441;SDS011;11388;54.456;9.752;2023-05-14T05:12:29;11.43;;;10.23;;
22441;SDS011;11388;54.456;9.752;2023-05-14T05:14:56;11.50;;;10.20;;
22441;SDS011;11388;54.456;9.752;2023-05-14T05:17:22;11.65;;;10.48;;
22441;SDS011;11388;54.456;9.752;2023-05-14T05:19:48;11.02;;;9.70;;
22441;SDS011;11388;54.456;9.752;2023-05-14T05:22:14;10.70;;;9.63;;
22441;SDS011;11388;54.456;9.752;2023-05-14T05:24:40;10.60;;;9.48;;
22441;SDS011;11388;54.456;9.752;2023-05-14T05:30:04;11.38;;;9.45;;
22441;SDS011;11388;54.456;9.752;2023-05-14T05:32:31;10.70;;;8.70;;
22441;SDS011;11388;54.456;9.752;2023-05-14T05:34:57;8.80;;;7.90;;
22441;SDS011;11388;54.456;9.752;2023-05-14T05:47:42;6.60;;;5.18;;
22441;SDS011;11388;54.456;9.752;2023-05-14T05:50:56;7.72;;;5.57;;
22441;SDS011;11388;54.456;9.752;2023-05-14T06:00:17;7.05;;;5.05;;
22441;SDS011;11388;54.456;9.752;2023-05-14T06:03:04;7.32;;;5.50;;
22441;SDS011;11388;54.456;9.752;2023-05-14T06:05:41;5.95;;;5.30;;
22441;SDS011;11388;54.456;9.752;2023-05-14T06:08:20;6.70;;;5.00;;
22441;SDS011;11388;54.456;9.752;2023-05-14T06:11:22;5.63;;;4.97;;
22441;SDS011;11388;54.456;9.752;2023-05-14T06:13:54;6.97;;;5.00;;
22441;SDS011;11388;54.456;9.752;2023-05-14T06:16:29;6.72;;;5.28;;
22441;SDS011;11388;54.456;9.752;2023-05-14T06:18:58;6.93;;;4.85;;
22441;SDS011;11388;54.456;9.752;2023-05-14T06:22:02;5.78;;;4.75;;
22441;SDS011;11388;54.456;9.752;2023-05-14T06:25:09;6.28;;;4.75;;
22441;SDS011;11388;54.456;9.752;2023-05-14T06:27:54;5.30;;;4.65;;
22441;SDS011;11388;54.456;9.752;2023-05-14T06:30:19;6.10;;;4.50;;
22441;SDS011;11388;54.456;9.752;2023-05-14T06:53:32;5.05;;;4.38;;
22441;SDS011;11388;54.456;9.752;2023-05-14T06:55:58;5.65;;;4.00;;
22441;SDS011;11388;54.456;9.752;2023-05-14T06:58:24;5.07;;;4.05;;
22441;SDS011;11388;54.456;9.752;2023-05-14T07:11:06;5.53;;;3.70;;
22441;SDS011;11388;54.456;9.752;2023-05-14T07:35:33;5.68;;;3.30;;
22441;SDS011;11388;54.456;9.752;2023-05-14T07:38:02;5.57;;;3.35;;
22441;SDS011;11388;54.456;9.752;2023-05-14T07:40:48;5.90;;;3.60;;
22441;SDS011;11388;54.456;9.752;2023-05-14T07:43:13;3.65;;;3.28;;
22441;SDS011;11388;54.456;9.752;2023-05-14T07:45:42;5.13;;;3.28;;
22441;SDS011;11388;54.456;9.752;2023-05-14T07:48:08;5.47;;;3.47;;
22441;SDS011;11388;54.456;9.752;2023-05-14T07:50:38;4.70;;;3.30;;
22441;SDS011;11388;54.456;9.752;2023-05-14T07:53:04;4.63;;;3.20;;
22441;SDS011;11388;54.456;9.752;2023-05-14T07:55:35;4.55;;;3.42;;
22441;SDS011;11388;54.456;9.752;2023-05-14T08:04:56;5.53;;;3.50;;
22441;SDS011;11388;54.456;9.752;2023-05-14T09:37:42;4.05;;;2.00;;
22441;SDS011;11388;54.456;9.752;2023-05-14T15:38:00;5.25;;;1.60;;
22441;SDS011;11388;54.456;9.752;2023-05-14T15:40:32;3.38;;;1.73;;
22441;SDS011;11388;54.456;9.752;2023-05-14T15:43:01;5.28;;;1.60;;
22441;SDS011;11388;54.456;9.752;2023-05-14T15:45:36;4.25;;;1.48;;
22441;SDS011;11388;54.456;9.752;2023-05-14T15:48:45;4.60;;;1.50;;
22441;SDS011;11388;54.456;9.752;2023-05-14T15:51:34;2.47;;;1.30;;
22441;SDS011;11388;54.456;9.752;2023-05-14T16:05:12;4.80;;;1.40;;
22441;SDS011;11388;54.456;9.752;2023-05-14T16:08:17;3.15;;;1.40;;
22441;SDS011;11388;54.456;9.752;2023-05-14T16:10:48;3.75;;;1.65;;
22441;SDS011;11388;54.456;9.752;2023-05-14T16:13:17;5.55;;;1.60;;
22441;SDS011;11388;54.456;9.752;2023-05-14T16:22:24;2.88;;;1.60;;
22441;SDS011;11388;54.456;9.752;2023-05-14T16:24:58;4.78;;;1.63;;
22441;SDS011;11388;54.456;9.752;2023-05-14T16:27:30;4.13;;;1.75;;
22441;SDS011;11388;54.456;9.752;2023-05-14T16:30:02;4.50;;;1.50;;
22441;SDS011;11388;54.456;9.752;2023-05-14T16:32:36;5.13;;;1.67;;
22441;SDS011;11388;54.456;9.752;2023-05-14T16:35:12;6.55;;;1.75;;
22441;SDS011;11388;54.456;9.752;2023-05-14T16:38:07;3.70;;;1.58;;
22441;SDS011;11388;54.456;9.752;2023-05-14T16:40:53;4.88;;;1.73;;
22441;SDS011;11388;54.456;9.752;2023-05-14T16:43:22;4.47;;;1.67;;
22441;SDS011;11388;54.456;9.752;2023-05-14T16:45:48;4.43;;;1.80;;
22441;SDS011;11388;54.456;9.752;2023-05-14T16:48:19;3.03;;;1.80;;
22441;SDS011;11388;54.456;9.752;2023-05-14T16:50:51;3.90;;;1.63;;
22441;SDS011;11388;54.456;9.752;2023-05-14T16:53:23;5.07;;;1.77;;
22441;SDS011;11388;54.456;9.752;2023-05-14T16:59:13;3.42;;;1.83;;
22441;SDS011;11388;54.456;9.752;2023-05-14T17:01:43;3.58;;;1.60;;
22441;SDS011;11388;54.456;9.752;2023-05-14T17:04:29;4.32;;;1.70;;
22441;SDS011;11388;54.456;9.752;2023-05-14T17:06:59;5.90;;;1.50;;
22441;SDS011;11388;54.456;9.752;2023-05-14T17:09:53;3.15;;;1.73;;
22441;SDS011;11388;54.456;9.752;2023-05-14T17:15:29;4.68;;;1.55;;
22441;SDS011;11388;54.456;9.752;2023-05-14T17:18:18;4.00;;;1.65;;
22441;SDS011;11388;54.456;9.752;2023-05-14T17:20:49;6.25;;;1.75;;
22441;SDS011;11388;54.456;9.752;2023-05-14T17:23:21;2.80;;;1.60;;
22441;SDS011;11388;54.456;9.752;2023-05-14T17:30:13;3.65;;;1.70;;
22441;SDS011;11388;54.456;9.752;2023-05-14T17:39:40;7.88;;;1.80;;
22441;SDS011;11388;54.456;9.752;2023-05-14T18:06:48;4.82;;;1.95;;
22441;SDS011;11388;54.456;9.752;2023-05-14T18:09:37;5.95;;;1.80;;
22441;SDS011;11388;54.456;9.752;2023-05-14T18:12:03;3.08;;;1.75;;
22441;SDS011;11388;54.456;9.752;2023-05-14T18:14:29;4.38;;;1.80;;
22441;SDS011;11388;54.456;9.752;2023-05-14T18:16:54;5.95;;;2.00;;
22441;SDS011;11388;54.456;9.752;2023-05-14T18:19:20;4.90;;;2.10;;
22441;SDS011;11388;54.456;9.752;2023-05-14T18:21:46;3.85;;;1.50;;
22441;SDS011;11388;54.456;9.752;2023-05-14T18:24:12;3.58;;;2.00;;
22441;SDS011;11388;54.456;9.752;2023-05-14T18:26:38;4.05;;;1.77;;
22441;SDS011;11388;54.456;9.752;2023-05-14T18:29:04;4.28;;;1.92;;
22441;SDS011;11388;54.456;9.752;2023-05-14T18:31:29;8.23;;;1.98;;
22441;SDS011;11388;54.456;9.752;2023-05-14T18:33:55;2.70;;;1.90;;
22441;SDS011;11388;54.456;9.752;2023-05-14T18:36:21;3.70;;;1.85;;
22441;SDS011;11388;54.456;9.752;2023-05-14T18:38:46;4.82;;;2.05;;
22441;SDS011;11388;54.456;9.752;2023-05-14T18:41:12;5.78;;;2.05;;
22441;SDS011;11388;54.456;9.752;2023-05-14T18:43:38;3.65;;;1.80;;
22441;SDS011;11388;54.456;9.752;2023-05-14T18:46:03;16.45;;;2.10;;
22441;SDS011;11388;54.456;9.752;2023-05-14T18:48:29;3.40;;;1.73;;
22441;SDS011;11388;54.456;9.752;2023-05-14T18:50:55;3.80;;;1.70;;
22441;SDS011;11388;54.456;9.752;2023-05-14T18:53:21;3.28;;;1.70;;
22441;SDS011;11388;54.456;9.752;2023-05-14T18:55:47;6.95;;;2.10;;
22441;SDS011;11388;54.456;9.752;2023-05-14T18:58:12;7.35;;;1.98;;
22441;SDS011;11388;54.456;9.752;2023-05-14T19:00:38;5.05;;;2.00;;
22441;SDS011;11388;54.456;9.752;2023-05-14T19:03:04;3.58;;;2.00;;
22441;SDS011;11388;54.456;9.752;2023-05-14T19:05:30;3.67;;;1.85;;
22441;SDS011;11388;54.456;9.752;2023-05-14T19:07:56;4.53;;;2.17;;
22441;SDS011;11388;54.456;9.752;2023-05-14T19:10:21;5.40;;;1.92;;
22441;SDS011;11388;54.456;9.752;2023-05-14T19:12:47;3.40;;;1.90;;
22441;SDS011;11388;54.456;9.752;2023-05-14T19:15:13;4.88;;;2.13;;
22441;SDS011;11388;54.456;9.752;2023-05-14T19:17:38;5.03;;;2.10;;
22441;SDS011;11388;54.456;9.752;2023-05-14T19:20:04;3.25;;;2.00;;
22441;SDS011;11388;54.456;9.752;2023-05-14T19:22:32;3.70;;;2.20;;
22441;SDS011;11388;54.456;9.752;2023-05-14T19:24:57;3.60;;;1.92;;
22441;SDS011;11388;54.456;9.752;2023-05-14T19:27:23;5.78;;;2.50;;
22441;SDS011;11388;54.456;9.752;2023-05-14T19:29:50;4.18;;;2.10;;
22441;SDS011;11388;54.456;9.752;2023-05-14T19:32:16;5.25;;;2.30;;
22441;SDS011;11388;54.456;9.752;2023-05-14T19:34:42;4.05;;;2.38;;
22441;SDS011;11388;54.456;9.752;2023-05-14T19:37:07;4.95;;;2.30;;
22441;SDS011;11388;54.456;9.752;2023-05-14T19:39:33;3.28;;;2.13;;
22441;SDS011;11388;54.456;9.752;2023-05-14T19:41:59;4.03;;;2.30;;
22441;SDS011;11388;54.456;9.752;2023-05-14T19:44:24;2.95;;;2.20;;
22441;SDS011;11388;54.456;9.752;2023-05-14T19:46:50;4.20;;;2.50;;
22441;SDS011;11388;54.456;9.752;2023-05-14T19:49:16;3.42;;;2.42;;
22441;SDS011;11388;54.456;9.752;2023-05-14T19:51:42;5.25;;;2.40;;
22441;SDS011;11388;54.456;9.752;2023-05-14T19:54:07;3.90;;;2.35;;
22441;SDS011;11388;54.456;9.752;2023-05-14T19:56:34;4.60;;;2.60;;
22441;SDS011;11388;54.456;9.752;2023-05-14T19:58:59;3.83;;;2.60;;
22441;SDS011;11388;54.456;9.752;2023-05-14T20:01:25;5.05;;;2.30;;
22441;SDS011;11388;54.456;9.752;2023-05-14T20:03:51;5.50;;;2.45;;
22441;SDS011;11388;54.456;9.752;2023-05-14T20:06:32;4.72;;;2.60;;
22441;SDS011;11388;54.456;9.752;2023-05-14T20:08:58;6.28;;;2.67;;
22441;SDS011;11388;54.456;9.752;2023-05-14T20:11:25;4.80;;;2.40;;
22441;SDS011;11388;54.456;9.752;2023-05-14T20:13:51;4.93;;;2.80;;
22441;SDS011;11388;54.456;9.752;2023-05-14T20:16:17;5.07;;;2.83;;
22441;SDS011;11388;54.456;9.752;2023-05-14T20:18:43;5.18;;;2.53;;
22441;SDS011;11388;54.456;9.752;2023-05-14T20:21:11;4.85;;;2.65;;
22441;SDS011;11388;54.456;9.752;2023-05-14T20:23:40;4.65;;;2.90;;
22441;SDS011;11388;54.456;9.752;2023-05-14T20:26:06;5.13;;;2.65;;
22441;SDS011;11388;54.456;9.752;2023-05-14T20:28:34;5.25;;;2.85;;
22441;SDS011;11388;54.456;9.752;2023-05-14T20:31:06;4.47;;;2.70;;
22441;SDS011;11388;54.456;9.752;2023-05-14T20:33:31;3.97;;;2.88;;
22441;SDS011;11388;54.456;9.752;2023-05-14T20:36:12;3.95;;;3.00;;
22441;SDS011;11388;54.456;9.752;2023-05-14T20:38:41;6.90;;;3.15;;
22441;SDS011;11388;54.456;9.752;2023-05-14T20:41:09;4.07;;;2.92;;
22441;SDS011;11388;54.456;9.752;2023-05-14T20:43:39;3.45;;;3.08;;
22441;SDS011;11388;54.456;9.752;2023-05-14T20:46:10;6.10;;;2.78;;
22441;SDS011;11388;54.456;9.752;2023-05-14T20:48:49;5.47;;;2.90;;
22441;SDS011;11388;54.456;9.752;2023-05-14T20:51:20;4.35;;;3.60;;
22441;SDS011;11388;54.456;9.752;2023-05-14T20:53:48;4.47;;;3.28;;
22441;SDS011;11388;54.456;9.752;2023-05-14T20:58:50;4.22;;;3.38;;
22441;SDS011;11388;54.456;9.752;2023-05-14T21:01:16;3.65;;;3.30;;
22441;SDS011;11388;54.456;9.752;2023-05-14T21:03:42;5.25;;;3.20;;
22441;SDS011;11388;54.456;9.752;2023-05-14T21:06:08;5.47;;;3.10;;
22441;SDS011;11388;54.456;9.752;2023-05-14T21:08:36;6.85;;;3.50;;
22441;SDS011;11388;54.456;9.752;2023-05-14T21:11:04;6.85;;;3.58;;
22441;SDS011;11388;54.456;9.752;2023-05-14T21:13:33;4.18;;;3.20;;
22441;SDS011;11388;54.456;9.752;2023-05-14T21:16:07;4.45;;;3.28;;
22441;SDS011;11388;54.456;9.752;2023-05-14T21:18:32;4.60;;;3.30;;
22441;SDS011;11388;54.456;9.752;2023-05-14T21:20:58;5.70;;;3.55;;
22441;SDS011;11388;54.456;9.752;2023-05-14T21:23:24;3.53;;;3.22;;
22441;SDS011;11388;54.456;9.752;2023-05-14T21:25:50;7.78;;;3.60;;
22441;SDS011;11388;54.456;9.752;2023-05-14T21:28:18;4.88;;;3.90;;
22441;SDS011;11388;54.456;9.752;2023-05-14T21:30:45;5.80;;;4.05;;
22441;SDS011;11388;54.456;9.752;2023-05-14T21:33:10;5.00;;;3.80;;
22441;SDS011;11388;54.456;9.752;2023-05-14T21:35:43;6.45;;;3.47;;
22441;SDS011;11388;54.456;9.752;2023-05-14T21:38:08;4.65;;;3.47;;
22441;SDS011;11388;54.456;9.752;2023-05-14T21:40:44;4.38;;;3.53;;
22441;SDS011;11388;54.456;9.752;2023-05-14T21:43:12;4.45;;;3.63;;
22441;SDS011;11388;54.456;9.752;2023-05-14T21:45:40;5.97;;;4.22;;
22441;SDS011;11388;54.456;9.752;2023-05-14T21:48:09;5.15;;;3.85;;
22441;SDS011;11388;54.456;9.752;2023-05-14T21:50:35;6.28;;;3.85;;
22441;SDS011;11388;54.456;9.752;2023-05-14T21:53:01;4.47;;;3.90;;
22441;SDS011;11388;54.456;9.752;2023-05-14T21:55:27;5.20;;;3.97;;
22441;SDS011;11388;54.456;9.752;2023-05-14T21:57:53;5.07;;;3.97;;
22441;SDS011;11388;54.456;9.752;2023-05-14T22:00:22;4.38;;;3.60;;
22441;SDS011;11388;54.456;9.752;2023-05-14T22:02:51;5.10;;;3.97;;
22441;SDS011;11388;54.456;9.752;2023-05-14T22:05:20;6.78;;;4.10;;
22441;SDS011;11388;54.456;9.752;2023-05-14T22:07:49;4.80;;;3.92;;
22441;SDS011;11388;54.456;9.752;2023-05-14T22:10:18;4.38;;;3.97;;
22441;SDS011;11388;54.456;9.752;2023-05-14T22:12:47;5.57;;;4.43;;
22441;SDS011;11388;54.456;9.752;2023-05-14T22:15:13;4.70;;;4.20;;
22441;SDS011;11388;54.456;9.752;2023-05-14T22:17:38;4.35;;;3.83;;
22441;SDS011;11388;54.456;9.752;2023-05-14T22:20:07;6.10;;;4.22;;
22441;SDS011;11388;54.456;9.752;2023-05-14T22:22:44;6.05;;;4.70;;
22441;SDS011;11388;54.456;9.752;2023-05-14T22:25:15;4.80;;;4.28;;
22441;SDS011;11388;54.456;9.752;2023-05-14T22:27:53;5.72;;;4.50;;
22441;SDS011;11388;54.456;9.752;2023-05-14T22:30:18;5.70;;;4.35;;
22441;SDS011;11388;54.456;9.752;2023-05-14T22:32:50;6.55;;;4.47;;
22441;SDS011;11388;54.456;9.752;2023-05-14T22:35:18;6.63;;;5.15;;
22441;SDS011;11388;54.456;9.752;2023-05-14T22:37:48;6.85;;;4.90;;
22441;SDS011;11388;54.456;9.752;2023-05-14T22:40:17;4.97;;;4.18;;
22441;SDS011;11388;54.456;9.752;2023-05-14T22:42:43;5.03;;;4.38;;
22441;SDS011;11388;54.456;9.752;2023-05-14T22:45:09;6.15;;;5.05;;
22441;SDS011;11388;54.456;9.752;2023-05-14T22:47:35;5.40;;;4.88;;
22441;SDS011;11388;54.456;9.752;2023-05-14T22:50:02;5.97;;;4.95;;
22441;SDS011;11388;54.456;9.752;2023-05-14T22:52:31;6.05;;;4.88;;
22441;SDS011;11388;54.456;9.752;2023-05-14T22:54:57;5.18;;;4.60;;
22441;SDS011;11388;54.456;9.752;2023-05-14T22:57:22;5.05;;;4.55;;
22441;SDS011;11388;54.456;9.752;2023-05-14T22:59:48;6.75;;;4.85;;
22441;SDS011;11388;54.456;9.752;2023-05-14T23:02:14;5.45;;;4.63;;
22441;SDS011;11388;54.456;9.752;2023-05-14T23:04:40;5.97;;;5.20;;
22441;SDS011;11388;54.456;9.752;2023-05-14T23:07:09;5.05;;;4.55;;
22441;SDS011;11388;54.456;9.752;2023-05-14T23:09:35;6.63;;;5.20;;
22441;SDS011;11388;54.456;9.752;2023-05-14T23:12:03;5.40;;;4.80;;
22441;SDS011;11388;54.456;9.752;2023-05-14T23:14:31;6.50;;;5.90;;
22441;SDS011;11388;54.456;9.752;2023-05-14T23:16:57;7.53;;;6.75;;
22441;SDS011;11388;54.456;9.752;2023-05-14T23:19:23;7.50;;;6.80;;
22441;SDS011;11388;54.456;9.752;2023-05-14T23:21:48;6.85;;;6.15;;
22441;SDS011;11388;54.456;9.752;2023-05-14T23:24:17;7.18;;;6.45;;
22441;SDS011;11388;54.456;9.752;2023-05-14T23:26:42;7.35;;;6.57;;
22441;SDS011;11388;54.456;9.752;2023-05-14T23:29:08;6.65;;;6.03;;
22441;SDS011;11388;54.456;9.752;2023-05-14T23:31:34;6.63;;;6.03;;
22441;SDS011;11388;54.456;9.752;2023-05-14T23:34:05;6.90;;;6.20;;
22441;SDS011;11388;54.456;9.752;2023-05-14T23:36:36;8.32;;;6.15;;
22441;SDS011;11388;54.456;9.752;2023-05-14T23:39:04;7.10;;;6.40;;
22441;SDS011;11388;54.456;9.752;2023-05-14T23:41:30;6.55;;;5.75;;
22441;SDS011;11388;54.456;9.752;2023-05-14T23:43:56;6.15;;;5.57;;
22441;SDS011;11388;54.456;9.752;2023-05-14T23:46:22;8.00;;;5.97;;
22441;SDS011;11388;54.456;9.752;2023-05-14T23:48:48;7.43;;;6.70;;
22441;SDS011;11388;54.456;9.752;2023-05-14T23:51:15;7.85;;;7.03;;
22441;SDS011;11388;54.456;9.752;2023-05-14T23:53:42;7.20;;;6.50;;
22441;SDS011;11388;54.456;9.752;2023-05-14T23:56:08;6.50;;;5.90;;
22441;SDS011;11388;54.456;9.752;2023-05-14T23:58:34;8.80;;;6.97;;
